Time;durP1;ratioP1;P1;durP2;ratioP2;P2;SDS_P1;SDS_P2;PMS_P1;PMS_P2;Temp;Humidity;BMP_temperature;BMP_pressure;BME280_temperature;BME280_humidity;BME280_pressure;Samples;Min_cycle;Max_cycle;Signal;HPM_P1;HPM_P2
2022/11/23 00:00:57;;;;;;;53.85;22.60;;;2.90;99.90;;;;;;5037830;28;20060;-69
2022/11/23 00:03:23;;;;;;;52.40;21.85;;;2.80;99.90;;;;;;5037972;28;20474;-70
2022/11/23 00:05:48;;;;;;;49.55;23.30;;;2.80;99.90;;;;;;5020142;28;20381;-71
2022/11/23 00:08:14;;;;;;;48.03;22.60;;;2.80;99.90;;;;;;5038468;28;20029;-69
2022/11/23 00:10:40;;;;;;;45.28;22.70;;;2.80;99.90;;;;;;5037795;28;20021;-70
2022/11/23 00:13:05;;;;;;;45.65;21.92;;;2.80;99.90;;;;;;5037653;28;20028;-70
2022/11/23 00:15:31;;;;;;;42.50;21.30;;;2.80;99.90;;;;;;5019912;28;20581;-70
2022/11/23 00:17:59;;;;;;;48.78;23.10;;;2.80;99.90;;;;;;5037638;28;20021;-70
2022/11/23 00:20:24;;;;;;;46.50;22.10;;;2.80;99.90;;;;;;5020813;28;20044;-70
2022/11/23 00:22:50;;;;;;;47.20;21.77;;;2.70;99.90;;;;;;5041399;28;20022;-71
2022/11/23 00:25:16;;;;;;;50.33;21.85;;;2.80;99.90;;;;;;5041957;28;20033;-70
2022/11/23 00:27:41;;;;;;;53.33;24.02;;;2.80;99.90;;;;;;5023848;28;20026;-70
2022/11/23 00:30:07;;;;;;;48.60;23.30;;;2.80;99.90;;;;;;5040533;28;20032;-70
2022/11/23 00:32:33;;;;;;;51.67;22.98;;;2.80;99.90;;;;;;5021630;28;20021;-70
2022/11/23 00:34:59;;;;;;;49.03;22.90;;;2.80;99.90;;;;;;5021428;28;20029;-70
2022/11/23 00:37:24;;;;;;;47.53;23.10;;;2.80;99.90;;;;;;5038620;28;20087;-69
2022/11/23 00:39:50;;;;;;;50.45;23.08;;;2.70;99.90;;;;;;5038536;28;20108;-70
2022/11/23 00:42:15;;;;;;;50.05;22.52;;;2.70;99.90;;;;;;5037522;28;20064;-70
2022/11/23 00:44:41;;;;;;;53.30;23.23;;;2.70;99.90;;;;;;5038809;28;20488;-70
2022/11/23 00:47:07;;;;;;;53.20;23.85;;;2.70;99.90;;;;;;5038310;28;20046;-70
2022/11/23 00:49:32;;;;;;;49.15;21.50;;;2.70;99.90;;;;;;5038122;28;20369;-70
2022/11/23 00:51:58;;;;;;;50.13;22.90;;;2.70;99.90;;;;;;5019990;28;20447;-70
2022/11/23 00:54:23;;;;;;;48.88;22.23;;;2.70;99.90;;;;;;5038065;28;20025;-69
2022/11/23 00:56:49;;;;;;;52.40;22.50;;;2.80;99.90;;;;;;5020401;28;20032;-69
2022/11/23 00:59:15;;;;;;;52.50;23.55;;;2.70;99.90;;;;;;5020829;28;20033;-70
2022/11/23 01:01:40;;;;;;;54.97;24.65;;;2.70;99.90;;;;;;5037510;28;20469;-69
2022/11/23 01:04:07;;;;;;;50.13;22.35;;;2.70;99.90;;;;;;5019705;28;20094;-70
2022/11/23 01:06:36;;;;;;;47.40;22.13;;;2.70;99.90;;;;;;5019951;28;20436;-69
2022/11/23 01:09:10;;;;;;;46.83;21.30;;;2.70;99.90;;;;;;5037135;28;20112;-70
2022/11/23 01:11:36;;;;;;;50.00;20.88;;;2.70;99.90;;;;;;5037417;28;20539;-69
2022/11/23 01:14:02;;;;;;;47.33;21.13;;;2.80;99.90;;;;;;5019388;28;20025;-69
2022/11/23 01:16:30;;;;;;;47.03;21.00;;;2.80;99.90;;;;;;5037736;28;20022;-69
2022/11/23 01:19:02;;;;;;;45.20;19.50;;;2.80;99.90;;;;;;5036872;28;20416;-69
2022/11/23 01:21:30;;;;;;;42.28;19.48;;;2.90;99.90;;;;;;5019185;28;20481;-69
2022/11/23 01:23:56;;;;;;;43.58;19.38;;;2.80;99.90;;;;;;5019478;28;20040;-69
2022/11/23 01:26:22;;;;;;;40.60;18.70;;;2.80;99.90;;;;;;5036825;28;20026;-69
2022/11/23 01:28:48;;;;;;;46.83;19.33;;;2.80;99.90;;;;;;5019247;28;20025;-69
2022/11/23 01:31:16;;;;;;;44.67;19.88;;;2.90;99.90;;;;;;5036987;28;20057;-69
2022/11/23 01:33:42;;;;;;;42.03;18.77;;;2.90;99.90;;;;;;5036184;28;20075;-69
2022/11/23 01:36:19;;;;;;;40.38;17.60;;;2.90;99.90;;;;;;5036648;28;20026;-69
2022/11/23 01:38:46;;;;;;;38.28;17.45;;;2.90;99.90;;;;;;5019386;28;20037;-69
2022/11/23 01:41:17;;;;;;;36.17;17.33;;;2.90;99.90;;;;;;5019291;28;20030;-69
2022/11/23 01:43:44;;;;;;;38.85;17.70;;;3.00;99.90;;;;;;5036885;28;20080;-69
2022/11/23 01:46:10;;;;;;;32.53;15.50;;;3.00;99.90;;;;;;5035671;28;20022;-69
2022/11/23 01:49:06;;;;;;;36.20;14.38;;;3.00;99.90;;;;;;5018855;28;20030;-69
2022/11/23 01:51:37;;;;;;;31.25;15.50;;;3.00;99.90;;;;;;5036192;28;20063;-68
2022/11/23 01:54:08;;;;;;;32.95;15.52;;;3.10;99.90;;;;;;5035387;28;20461;-69
2022/11/23 01:56:43;;;;;;;34.00;16.45;;;3.10;99.90;;;;;;5035771;28;20049;-69
2022/11/23 01:59:11;;;;;;;33.58;15.18;;;3.10;99.90;;;;;;5035989;28;20458;-69
2022/11/23 02:01:37;;;;;;;33.78;16.10;;;3.10;99.90;;;;;;5036062;28;20073;-70
2022/11/23 02:04:07;;;;;;;31.02;15.07;;;3.00;99.90;;;;;;5036349;28;20032;-69
2022/11/23 02:06:33;;;;;;;30.00;15.57;;;3.10;99.90;;;;;;5019116;28;20466;-69
2022/11/23 02:08:59;;;;;;;28.67;14.38;;;3.00;99.90;;;;;;5036701;28;20040;-70
2022/11/23 02:11:25;;;;;;;33.33;16.05;;;3.10;99.90;;;;;;5018531;28;20083;-71
2022/11/23 02:13:51;;;;;;;28.20;14.68;;;3.10;99.90;;;;;;5035993;28;20045;-68
2022/11/23 02:16:17;;;;;;;29.02;13.20;;;3.10;99.90;;;;;;5017650;28;20029;-69
2022/11/23 02:18:46;;;;;;;30.20;14.48;;;3.10;99.90;;;;;;5035165;28;20032;-69
2022/11/23 02:21:12;;;;;;;29.45;14.43;;;3.20;99.90;;;;;;5034801;28;20033;-69
2022/11/23 02:23:49;;;;;;;28.75;14.20;;;3.20;99.90;;;;;;5034906;28;20037;-69
2022/11/23 02:26:29;;;;;;;36.58;16.75;;;3.20;99.90;;;;;;5017380;28;20080;-72
2022/11/23 02:28:57;;;;;;;31.58;15.30;;;3.20;99.90;;;;;;5017591;28;20025;-69
2022/11/23 02:31:23;;;;;;;33.53;16.58;;;3.20;99.90;;;;;;5035589;28;20096;-68
2022/11/23 02:33:49;;;;;;;34.10;16.98;;;3.20;99.90;;;;;;5039487;28;20065;-69
2022/11/23 02:36:33;;;;;;;38.78;17.83;;;3.10;99.90;;;;;;5039181;28;20458;-69
2022/11/23 02:39:01;;;;;;;32.17;17.05;;;3.10;99.90;;;;;;5038679;28;20079;-69
2022/11/23 02:41:33;;;;;;;34.90;17.13;;;3.10;99.90;;;;;;5038017;28;20037;-69
2022/11/23 02:43:59;;;;;;;41.53;17.92;;;3.10;99.90;;;;;;5036910;28;20139;-68
2022/11/23 02:46:24;;;;;;;32.90;16.92;;;3.20;99.90;;;;;;5035687;28;20584;-68
2022/11/23 02:48:50;;;;;;;36.13;16.10;;;3.20;99.90;;;;;;5017695;28;20480;-68
2022/11/23 02:51:15;;;;;;;33.10;16.10;;;3.20;99.90;;;;;;5035312;28;20033;-69
2022/11/23 02:53:41;;;;;;;29.95;15.23;;;3.20;99.90;;;;;;5017187;28;20026;-69
2022/11/23 02:56:07;;;;;;;26.00;13.55;;;3.10;99.90;;;;;;5035007;28;20028;-68
2022/11/23 02:58:32;;;;;;;27.08;14.88;;;3.10;99.90;;;;;;5017264;28;20025;-69
2022/11/23 03:00:58;;;;;;;31.80;15.65;;;3.10;99.90;;;;;;5034847;28;20073;-69
2022/11/23 03:03:24;;;;;;;27.25;14.23;;;3.10;99.90;;;;;;5034933;28;20155;-68
2022/11/23 03:05:49;;;;;;;25.65;14.15;;;3.10;99.90;;;;;;5033597;28;20030;-68
2022/11/23 03:08:15;;;;;;;25.83;13.82;;;3.00;99.90;;;;;;5016883;28;20075;-68
2022/11/23 03:10:40;;;;;;;23.10;12.32;;;3.10;99.90;;;;;;5034525;28;20064;-68
2022/11/23 03:13:06;;;;;;;24.52;12.73;;;3.00;99.90;;;;;;5034181;28;20527;-68
2022/11/23 03:15:32;;;;;;;23.42;11.90;;;3.00;99.90;;;;;;5034894;28;20022;-69
2022/11/23 03:17:57;;;;;;;26.70;13.90;;;3.00;99.90;;;;;;5017745;28;20052;-68
2022/11/23 03:20:23;;;;;;;24.85;12.95;;;3.00;99.90;;;;;;5036424;28;20033;-69
2022/11/23 03:22:48;;;;;;;22.15;11.85;;;3.00;99.90;;;;;;5035801;28;20079;-69
2022/11/23 03:25:14;;;;;;;27.15;13.38;;;3.00;99.90;;;;;;5034840;28;20104;-68
2022/11/23 03:27:40;;;;;;;23.85;12.63;;;3.00;99.90;;;;;;5016805;28;20116;-67
2022/11/23 03:30:07;;;;;;;19.90;11.23;;;3.00;99.90;;;;;;5017198;28;20461;-68
2022/11/23 03:32:34;;;;;;;20.42;12.05;;;3.00;99.90;;;;;;5036098;28;20032;-69
2022/11/23 03:34:59;;;;;;;24.75;12.15;;;3.00;99.90;;;;;;5035929;28;20029;-69
2022/11/23 03:37:25;;;;;;;22.42;11.55;;;3.00;99.90;;;;;;5036270;28;20033;-69
2022/11/23 03:39:50;;;;;;;23.00;12.15;;;3.00;99.90;;;;;;5016997;28;20032;-67
2022/11/23 03:42:16;;;;;;;24.77;11.82;;;2.90;99.90;;;;;;5016964;28;20033;-69
2022/11/23 03:44:42;;;;;;;21.88;12.05;;;2.90;99.90;;;;;;5017050;28;20026;-69
2022/11/23 03:47:07;;;;;;;22.45;11.77;;;2.90;99.90;;;;;;5033966;28;20049;-69
2022/11/23 03:49:33;;;;;;;21.88;11.13;;;2.90;99.90;;;;;;5016911;28;20026;-69
2022/11/23 03:51:59;;;;;;;21.80;11.00;;;2.90;99.90;;;;;;5034286;28;20075;-68
2022/11/23 03:54:24;;;;;;;17.98;10.60;;;2.90;99.90;;;;;;5034319;28;20096;-69
2022/11/23 03:56:50;;;;;;;19.90;10.80;;;2.90;99.90;;;;;;5017219;28;20457;-69
2022/11/23 03:59:15;;;;;;;18.27;10.60;;;2.90;99.90;;;;;;5016549;28;20037;-69
2022/11/23 04:01:41;;;;;;;20.92;11.05;;;2.90;99.90;;;;;;5034446;28;20034;-69
2022/11/23 04:04:06;;;;;;;19.15;10.55;;;2.80;99.90;;;;;;5016638;28;20029;-69
2022/11/23 04:06:32;;;;;;;17.38;10.68;;;2.80;99.90;;;;;;5033980;28;20052;-69
2022/11/23 04:08:58;;;;;;;19.40;10.88;;;2.80;99.90;;;;;;5016416;28;20376;-69
2022/11/23 04:11:23;;;;;;;17.52;9.77;;;2.90;99.90;;;;;;5016237;28;20083;-71
2022/11/23 04:13:49;;;;;;;18.23;10.68;;;2.80;99.90;;;;;;5016320;28;20025;-69
2022/11/23 04:16:15;;;;;;;18.92;10.80;;;2.90;99.90;;;;;;5034505;28;20025;-69
2022/11/23 04:18:40;;;;;;;18.80;10.63;;;2.90;99.90;;;;;;5037041;28;20416;-67
2022/11/23 04:21:06;;;;;;;20.58;10.75;;;2.90;99.90;;;;;;5037069;28;20492;-67
2022/11/23 04:23:32;;;;;;;19.02;9.05;;;2.90;99.90;;;;;;5019338;28;20022;-68
2022/11/23 04:25:57;;;;;;;17.73;10.38;;;2.80;99.90;;;;;;5019362;28;20029;-68
2022/11/23 04:28:23;;;;;;;19.67;10.60;;;2.90;99.90;;;;;;5019750;28;20181;-69
2022/11/23 04:30:49;;;;;;;16.17;9.57;;;2.80;99.90;;;;;;5019481;28;20420;-68
2022/11/23 04:33:15;;;;;;;16.60;9.18;;;2.80;99.90;;;;;;5037525;28;20072;-69
2022/11/23 04:35:40;;;;;;;16.10;9.57;;;2.80;99.90;;;;;;5019910;28;20124;-69
2022/11/23 04:38:06;;;;;;;18.65;9.65;;;2.70;99.90;;;;;;5021303;28;20063;-69
2022/11/23 04:40:32;;;;;;;20.45;10.82;;;2.70;99.90;;;;;;5040389;28;20037;-69
2022/11/23 04:42:57;;;;;;;20.92;9.95;;;2.70;99.90;;;;;;5040009;28;20033;-69
2022/11/23 04:45:24;;;;;;;17.48;8.88;;;2.70;99.90;;;;;;5039633;28;20032;-69
2022/11/23 04:47:49;;;;;;;19.48;10.27;;;2.80;99.90;;;;;;5021101;28;20076;-68
2022/11/23 04:50:15;;;;;;;16.48;9.60;;;2.80;99.90;;;;;;5020022;28;20478;-68
2022/11/23 04:52:41;;;;;;;18.02;10.55;;;2.70;99.90;;;;;;5019582;28;20029;-68
2022/11/23 04:55:07;;;;;;;20.42;10.13;;;2.70;99.90;;;;;;5037083;28;20369;-69
2022/11/23 04:57:32;;;;;;;17.85;10.32;;;2.70;99.90;;;;;;5020061;28;20179;-69
2022/11/23 04:59:58;;;;;;;17.13;9.38;;;2.70;99.90;;;;;;5037681;28;20496;-69
2022/11/23 05:02:24;;;;;;;15.00;9.13;;;2.70;99.90;;;;;;5037535;28;20041;-69
2022/11/23 05:04:49;;;;;;;16.83;9.68;;;2.70;99.90;;;;;;5036844;28;20022;-69
2022/11/23 05:07:15;;;;;;;15.75;9.13;;;2.60;99.90;;;;;;5037509;28;20029;-69
2022/11/23 05:09:42;;;;;;;17.00;9.10;;;2.60;99.90;;;;;;5036774;28;20032;-69
2022/11/23 05:12:08;;;;;;;16.88;9.77;;;2.60;99.90;;;;;;5019098;28;20057;-68
2022/11/23 05:14:33;;;;;;;12.60;7.75;;;2.60;99.90;;;;;;5037076;28;20068;-69
2022/11/23 05:16:59;;;;;;;17.73;9.40;;;2.60;99.90;;;;;;5037344;28;20060;-70
2022/11/23 05:19:24;;;;;;;12.98;7.80;;;2.50;99.90;;;;;;5037871;28;20552;-70
2022/11/23 05:21:50;;;;;;;11.30;7.60;;;2.50;99.90;;;;;;5039194;28;20120;-70
2022/11/23 05:24:16;;;;;;;14.13;8.15;;;2.50;99.90;;;;;;5020480;28;20115;-70
2022/11/23 05:26:41;;;;;;;12.65;7.00;;;2.40;99.90;;;;;;5019637;28;20069;-69
2022/11/23 05:29:07;;;;;;;11.63;7.63;;;2.40;99.90;;;;;;5036656;28;20083;-71
2022/11/23 05:31:32;;;;;;;12.80;6.65;;;2.30;99.90;;;;;;5039494;28;20449;-70
2022/11/23 05:33:58;;;;;;;12.13;6.53;;;2.30;99.90;;;;;;5021778;28;20543;-70
2022/11/23 05:36:24;;;;;;;12.43;6.97;;;2.30;99.90;;;;;;5037757;28;20036;-71
2022/11/23 05:38:50;;;;;;;11.73;6.20;;;2.20;99.90;;;;;;5037605;28;20026;-70
2022/11/23 05:41:16;;;;;;;11.20;7.15;;;2.30;99.90;;;;;;5020932;28;20034;-71
2022/11/23 05:43:41;;;;;;;9.30;6.20;;;2.20;99.90;;;;;;5038493;28;20104;-73
2022/11/23 05:46:07;;;;;;;12.27;6.55;;;2.20;99.90;;;;;;5020756;28;20040;-71
2022/11/23 05:48:33;;;;;;;11.02;6.97;;;2.20;99.90;;;;;;5037543;28;20117;-70
2022/11/23 05:50:58;;;;;;;11.80;5.93;;;2.20;99.90;;;;;;5035839;28;20086;-70
2022/11/23 05:53:24;;;;;;;9.70;6.63;;;2.10;99.90;;;;;;5036091;28;20034;-70
2022/11/23 05:55:50;;;;;;;9.85;6.15;;;2.10;99.90;;;;;;5018174;28;20022;-70
2022/11/23 05:58:15;;;;;;;12.90;7.65;;;2.10;99.90;;;;;;5017813;28;20065;-70
2022/11/23 06:00:41;;;;;;;10.55;6.47;;;2.10;99.90;;;;;;5035432;28;20045;-70
2022/11/23 06:03:07;;;;;;;9.23;6.00;;;2.10;99.90;;;;;;5036797;28;20028;-72
2022/11/23 06:05:32;;;;;;;12.50;6.60;;;2.30;99.90;;;;;;5036945;28;20037;-72
2022/11/23 06:07:58;;;;;;;14.10;7.18;;;2.00;99.90;;;;;;5037620;28;20033;-73
2022/11/23 06:10:24;;;;;;;14.30;6.72;;;2.10;99.90;;;;;;5038558;28;20037;-73
2022/11/23 06:12:50;;;;;;;10.88;7.07;;;2.10;99.90;;;;;;5019469;28;20025;-73
2022/11/23 06:15:16;;;;;;;9.95;6.43;;;2.20;99.90;;;;;;5018887;28;20029;-72
2022/11/23 06:17:42;;;;;;;10.50;6.50;;;2.20;99.90;;;;;;5018816;28;20021;-73
2022/11/23 06:20:08;;;;;;;13.90;7.75;;;2.20;99.90;;;;;;5035967;28;20036;-72
2022/11/23 06:22:33;;;;;;;11.10;6.65;;;2.20;99.90;;;;;;5018417;28;20029;-73
2022/11/23 06:25:00;;;;;;;9.38;6.35;;;2.30;99.90;;;;;;5019774;28;20025;-73
2022/11/23 06:27:25;;;;;;;10.43;7.13;;;2.10;99.90;;;;;;5018475;28;20057;-73
2022/11/23 06:29:51;;;;;;;10.32;7.60;;;2.10;99.90;;;;;;5018372;28;20026;-73
2022/11/23 06:32:17;;;;;;;12.15;7.47;;;2.10;99.90;;;;;;5018748;28;20116;-73
2022/11/23 06:34:43;;;;;;;17.35;8.40;;;2.20;99.90;;;;;;5018039;28;20029;-72
2022/11/23 06:37:09;;;;;;;12.30;7.32;;;2.10;99.90;;;;;;5017294;28;20377;-70
2022/11/23 06:39:34;;;;;;;8.70;6.43;;;2.10;99.90;;;;;;5016983;28;20470;-70
2022/11/23 06:42:00;;;;;;;11.93;7.28;;;2.20;99.90;;;;;;5034705;28;20044;-70
2022/11/23 06:44:26;;;;;;;11.63;7.60;;;2.10;99.90;;;;;;5034792;28;20037;-70
2022/11/23 06:46:51;;;;;;;14.48;7.75;;;2.20;99.90;;;;;;5016625;28;20056;-70
2022/11/23 06:49:19;;;;;;;11.35;7.13;;;2.20;99.90;;;;;;5017411;28;20056;-71
2022/11/23 06:51:45;;;;;;;14.27;8.05;;;2.20;99.90;;;;;;5038416;28;20025;-70
2022/11/23 06:54:11;;;;;;;13.43;7.50;;;2.20;99.90;;;;;;5021230;28;20025;-72
2022/11/23 06:56:37;;;;;;;15.18;7.63;;;2.30;99.90;;;;;;5021332;28;20025;-70
2022/11/23 06:59:03;;;;;;;14.18;8.13;;;2.30;99.90;;;;;;5020586;28;20029;-69
2022/11/23 07:01:28;;;;;;;11.38;6.97;;;2.30;99.90;;;;;;5036533;28;20469;-70
2022/11/23 07:03:54;;;;;;;9.30;6.55;;;2.40;99.90;;;;;;5036330;28;20064;-70
2022/11/23 07:06:20;;;;;;;15.45;8.68;;;2.40;99.90;;;;;;5017675;28;20372;-70
2022/11/23 07:08:45;;;;;;;12.88;7.45;;;2.40;99.90;;;;;;5017274;28;20120;-70
2022/11/23 07:11:11;;;;;;;9.48;6.82;;;2.40;99.90;;;;;;5034434;28;20128;-70
2022/11/23 07:13:37;;;;;;;10.85;7.38;;;2.40;99.90;;;;;;5016424;28;20377;-70
2022/11/23 07:16:04;;;;;;;11.15;7.53;;;2.50;99.90;;;;;;5016551;28;20025;-69
2022/11/23 07:18:29;;;;;;;13.07;9.52;;;2.50;99.90;;;;;;5016555;28;20032;-69
2022/11/23 07:20:58;;;;;;;13.98;10.23;;;2.60;99.90;;;;;;5034662;28;20042;-70
2022/11/23 07:23:25;;;;;;;18.33;10.05;;;2.60;99.90;;;;;;5016915;28;20036;-69
2022/11/23 07:25:51;;;;;;;13.32;8.10;;;2.70;99.90;;;;;;5034811;28;20064;-69
2022/11/23 07:28:16;;;;;;;12.82;8.57;;;2.70;99.90;;;;;;5016863;28;20429;-69
2022/11/23 07:30:42;;;;;;;11.70;6.85;;;2.80;99.90;;;;;;5034116;28;20061;-69
2022/11/23 07:33:10;;;;;;;11.43;6.93;;;2.80;99.90;;;;;;5034246;28;20025;-69
2022/11/23 07:35:37;;;;;;;13.75;8.02;;;2.80;99.90;;;;;;5034275;28;20033;-70
2022/11/23 07:38:06;;;;;;;12.77;6.63;;;2.90;99.90;;;;;;5016597;28;20036;-69
2022/11/23 07:40:32;;;;;;;;;;;2.90;99.90;;;;;;5016238;28;20034;-70
2022/11/23 07:42:59;;;;;;;9.85;6.60;;;2.80;99.90;;;;;;5033974;28;19905;-70
2022/11/23 07:45:25;;;;;;;11.20;6.45;;;2.90;99.90;;;;;;5016971;28;20056;-70
2022/11/23 07:48:06;;;;;;;10.15;6.85;;;3.00;99.90;;;;;;5016626;28;20494;-70
2022/11/23 07:50:34;;;;;;;11.70;7.75;;;3.10;99.90;;;;;;5017237;28;20493;-70
2022/11/23 07:53:02;;;;;;;13.65;7.45;;;3.20;99.90;;;;;;5020404;28;20042;-69
2022/11/23 07:55:29;;;;;;;7.70;5.90;;;3.20;99.90;;;;;;5020265;28;20029;-70
2022/11/23 07:57:55;;;;;;;10.18;6.57;;;3.20;99.90;;;;;;5038020;28;20044;-70
2022/11/23 08:00:22;;;;;;;7.18;5.95;;;3.20;99.90;;;;;;5020078;28;20462;-70
2022/11/23 08:02:48;;;;;;;10.98;5.78;;;3.20;99.90;;;;;;5037818;28;20485;-70
2022/11/23 08:05:14;;;;;;;8.50;6.10;;;3.30;99.90;;;;;;5020140;28;20032;-70
2022/11/23 08:07:40;;;;;;;6.95;4.88;;;3.30;99.90;;;;;;5020098;28;20548;-70
2022/11/23 08:10:06;;;;;;;8.70;5.35;;;3.30;99.90;;;;;;5038040;28;20133;-70
2022/11/23 08:12:31;;;;;;;6.50;4.78;;;3.30;99.90;;;;;;5020385;28;20021;-70
2022/11/23 08:14:57;;;;;;;7.55;5.55;;;3.40;99.90;;;;;;5021003;28;20029;-70
2022/11/23 08:17:23;;;;;;;6.72;5.07;;;3.40;99.90;;;;;;5039401;28;20029;-70
2022/11/23 08:19:48;;;;;;;9.60;5.90;;;3.40;99.90;;;;;;5039287;28;20026;-70
2022/11/23 08:22:14;;;;;;;7.10;5.25;;;3.40;99.90;;;;;;5021413;28;20124;-70
2022/11/23 08:24:39;;;;;;;7.35;5.20;;;3.40;99.90;;;;;;5021831;28;20036;-70
2022/11/23 08:27:05;;;;;;;10.65;6.35;;;3.40;99.90;;;;;;5039189;28;20033;-70
2022/11/23 08:29:31;;;;;;;14.18;6.57;;;3.50;99.90;;;;;;5021467;28;20026;-70
2022/11/23 08:31:56;;;;;;;6.80;4.80;;;3.50;99.90;;;;;;5024258;28;20033;-70
2022/11/23 08:34:22;;;;;;;6.63;4.80;;;3.40;99.90;;;;;;5024510;28;20053;-72
2022/11/23 08:36:48;;;;;;;7.20;5.05;;;3.50;99.90;;;;;;5042102;28;20034;-70
2022/11/23 08:39:14;;;;;;;11.02;5.65;;;3.50;99.90;;;;;;5023303;28;20032;-68
2022/11/23 08:41:40;;;;;;;7.68;5.03;;;3.50;99.90;;;;;;5039879;28;20040;-70
2022/11/23 08:44:10;;;;;;;7.45;4.50;;;3.50;99.90;;;;;;5022871;28;20033;-70
2022/11/23 08:46:36;;;;;;;7.18;4.50;;;3.50;99.90;;;;;;5040531;28;20045;-69
2022/11/23 08:49:02;;;;;;;6.28;4.55;;;3.60;99.90;;;;;;5038879;28;20539;-69
2022/11/23 08:51:28;;;;;;;6.60;4.72;;;3.60;99.90;;;;;;5040161;28;20036;-70
2022/11/23 08:53:54;;;;;;;6.18;4.85;;;3.60;99.90;;;;;;5039846;28;20089;-69
2022/11/23 08:56:19;;;;;;;6.80;5.07;;;3.60;99.90;;;;;;5038432;28;20022;-69
2022/11/23 08:58:45;;;;;;;5.57;4.68;;;3.60;99.90;;;;;;5021514;28;20025;-69
2022/11/23 09:01:13;;;;;;;8.25;4.97;;;3.60;99.90;;;;;;5037700;28;20030;-69
2022/11/23 09:03:40;;;;;;;6.47;4.68;;;3.60;99.90;;;;;;5036430;28;20474;-69
2022/11/23 09:06:06;;;;;;;6.28;4.13;;;3.60;99.90;;;;;;5037785;28;20089;-69
2022/11/23 09:08:32;;;;;;;6.47;4.07;;;3.50;99.90;;;;;;5019092;28;20082;-69
2022/11/23 09:11:00;;;;;;;6.47;4.80;;;3.60;99.90;;;;;;5019113;28;20025;-69
2022/11/23 09:13:26;;;;;;;8.18;4.65;;;3.50;99.90;;;;;;5036089;28;20029;-68
2022/11/23 09:15:55;;;;;;;7.45;5.28;;;3.50;99.90;;;;;;5018480;28;20025;-68
2022/11/23 09:18:21;;;;;;;7.18;4.70;;;3.50;99.90;;;;;;5035836;28;20044;-68
2022/11/23 09:20:46;;;;;;;6.88;4.60;;;3.50;99.90;;;;;;5035918;28;20494;-68
2022/11/23 09:23:12;;;;;;;8.50;5.95;;;3.50;99.90;;;;;;5018199;28;20025;-68
2022/11/23 09:25:37;;;;;;;6.93;4.53;;;3.60;99.90;;;;;;5018377;28;20025;-68
2022/11/23 09:28:03;;;;;;;7.20;4.60;;;3.60;99.90;;;;;;5035911;28;20034;-68
2022/11/23 09:30:29;;;;;;;6.80;4.90;;;3.60;99.90;;;;;;5036019;28;20033;-68
2022/11/23 09:32:56;;;;;;;7.63;4.82;;;3.60;99.90;;;;;;5035764;28;20025;-67
2022/11/23 09:35:22;;;;;;;9.88;4.25;;;3.60;99.90;;;;;;5017842;28;20509;-68
2022/11/23 09:37:54;;;;;;;7.50;4.65;;;3.60;99.90;;;;;;5017883;28;20114;-67
2022/11/23 09:40:20;;;;;;;6.88;4.88;;;3.60;99.90;;;;;;5035782;28;20435;-67
2022/11/23 09:43:13;;;;;;;6.90;5.10;;;3.60;99.90;;;;;;5017982;28;20065;-67
2022/11/23 09:46:02;;;;;;;7.10;5.07;;;3.70;99.90;;;;;;5017832;28;20033;-68
2022/11/23 09:49:03;;;;;;;6.68;5.03;;;3.70;99.90;;;;;;5016872;28;20052;-67
2022/11/23 09:51:28;;;;;;;7.30;5.22;;;3.70;99.90;;;;;;4974185;28;20035;-67
2022/11/23 09:54:22;;;;;;;6.85;5.00;;;3.80;99.90;;;;;;5022412;28;20362;-68
2022/11/23 09:56:50;;;;;;;6.22;4.90;;;3.90;99.90;;;;;;5035324;28;20021;-67
2022/11/23 09:59:30;;;;;;;8.07;5.53;;;3.90;99.90;;;;;;5035605;28;20029;-67
2022/11/23 10:02:00;;;;;;;7.07;4.85;;;4.00;99.90;;;;;;5035491;28;20038;-67
2022/11/23 10:04:31;;;;;;;7.80;5.45;;;4.00;99.90;;;;;;5035857;28;20509;-67
2022/11/23 10:07:12;;;;;;;6.50;4.60;;;4.10;99.90;;;;;;5018741;28;20022;-71
2022/11/23 10:09:45;;;;;;;7.47;4.80;;;4.10;99.90;;;;;;5018249;28;20160;-67
2022/11/23 10:12:38;;;;;;;6.45;4.53;;;4.10;99.90;;;;;;5036120;28;20025;-67
2022/11/23 10:15:22;;;;;;;7.75;5.20;;;4.10;99.90;;;;;;5035015;28;20366;-66
2022/11/23 10:18:09;;;;;;;6.82;5.10;;;4.20;99.90;;;;;;5034914;28;20032;-66
2022/11/23 10:20:57;;;;;;;8.20;5.60;;;4.20;99.90;;;;;;5017029;28;20037;-66
2022/11/23 10:23:59;;;;;;;6.95;5.72;;;4.20;99.90;;;;;;5017051;28;20025;-66
2022/11/23 10:26:33;;;;;;;7.80;5.18;;;4.30;99.90;;;;;;5034689;28;20487;-66
2022/11/23 10:29:14;;;;;;;6.22;5.32;;;4.40;99.90;;;;;;5017555;28;20060;-66
2022/11/23 10:31:46;;;;;;;6.65;5.22;;;4.40;99.90;;;;;;5034666;28;20034;-66
2022/11/23 10:35:00;;;;;;;10.25;4.95;;;4.50;99.90;;;;;;5034848;28;20469;-66
2022/11/23 10:37:26;;;;;;;6.75;4.97;;;4.50;99.90;;;;;;5031223;28;20072;-66
2022/11/23 10:39:52;;;;;;;9.68;5.95;;;4.50;99.90;;;;;;5016783;28;20406;-66
2022/11/23 10:42:27;;;;;;;5.43;4.60;;;4.50;99.90;;;;;;5016897;28;20037;-66
2022/11/23 10:44:55;;;;;;;6.28;5.10;;;4.60;99.90;;;;;;5034680;28;20108;-66
2022/11/23 10:48:00;;;;;;;6.95;5.30;;;4.60;99.90;;;;;;5016382;28;20441;-65
2022/11/23 10:50:32;;;;;;;5.47;4.78;;;4.60;99.90;;;;;;4956944;28;20505;-65
2022/11/23 10:53:27;;;;;;;9.20;5.35;;;4.60;99.90;;;;;;4973171;28;20510;-65
2022/11/23 10:55:58;;;;;;;7.43;5.53;;;4.60;99.90;;;;;;4951786;28;20487;-65
2022/11/23 10:58:41;;;;;;;6.63;5.15;;;4.60;99.90;;;;;;4973057;28;20139;-65
2022/11/23 11:01:25;;;;;;;8.90;4.60;;;4.70;99.90;;;;;;4957366;28;20043;-65
2022/11/23 11:03:52;;;;;;;7.75;5.15;;;4.70;99.90;;;;;;4956962;28;20033;-65
2022/11/23 11:06:29;;;;;;;6.00;4.65;;;4.70;99.90;;;;;;4973325;28;20090;-65
2022/11/23 11:08:57;;;;;;;5.40;4.05;;;4.80;99.90;;;;;;4957654;28;20031;-66
2022/11/23 11:11:31;;;;;;;5.47;4.60;;;4.70;99.90;;;;;;4975773;28;20038;-67
2022/11/23 11:14:15;;;;;;;4.53;3.65;;;4.70;99.90;;;;;;4959136;28;20041;-66
2022/11/23 11:16:49;;;;;;;6.18;4.32;;;4.70;99.90;;;;;;4957567;28;20390;-66
2022/11/23 11:19:29;;;;;;;6.13;4.43;;;4.70;99.90;;;;;;4972962;28;20030;-66
2022/11/23 11:21:56;;;;;;;6.20;4.60;;;4.70;99.90;;;;;;5005097;28;20523;-65
2022/11/23 11:24:36;;;;;;;5.28;3.88;;;4.70;99.90;;;;;;5016169;28;20025;-66
2022/11/23 11:27:06;;;;;;;5.47;3.60;;;4.70;99.90;;;;;;5033222;28;20032;-66
2022/11/23 11:29:43;;;;;;;5.47;3.95;;;4.60;99.90;;;;;;5016130;28;20104;-65
2022/11/23 11:32:30;;;;;;;6.25;5.22;;;4.60;99.90;;;;;;5016483;28;20029;-65
2022/11/23 11:35:25;;;;;;;4.88;3.90;;;4.50;99.90;;;;;;5016454;28;20080;-65
2022/11/23 11:37:54;;;;;;;8.18;5.13;;;4.50;99.90;;;;;;5016506;28;20053;-69
2022/11/23 11:40:32;;;;;;;5.53;4.40;;;4.50;99.90;;;;;;5033687;28;20026;-68
2022/11/23 11:43:19;;;;;;;5.10;4.55;;;4.50;99.90;;;;;;5016367;28;20121;-68
2022/11/23 11:45:47;;;;;;;6.03;5.00;;;4.40;99.90;;;;;;5015715;28;20033;-68
2022/11/23 11:48:21;;;;;;;7.43;4.50;;;4.40;99.90;;;;;;5015512;28;20080;-69
2022/11/23 11:50:50;;;;;;;6.53;4.93;;;4.40;99.90;;;;;;5033459;28;20060;-68
2022/11/23 11:53:26;;;;;;;5.78;4.75;;;4.40;99.90;;;;;;5016168;28;20033;-69
2022/11/23 11:56:05;;;;;;;6.03;5.00;;;4.40;99.90;;;;;;5015751;28;20036;-69
2022/11/23 11:58:34;;;;;;;5.80;4.35;;;4.40;99.90;;;;;;5016255;28;20036;-68
2022/11/23 12:01:13;;;;;;;6.35;5.20;;;4.40;99.90;;;;;;5015859;28;20033;-68
2022/11/23 12:03:45;;;;;;;5.47;3.97;;;4.40;99.90;;;;;;5016094;28;20037;-69
2022/11/23 12:06:31;;;;;;;6.10;4.15;;;4.40;99.90;;;;;;5033507;28;20409;-68
2022/11/23 12:09:06;;;;;;;6.93;4.50;;;4.40;99.90;;;;;;5034213;28;20021;-68
2022/11/23 12:11:31;;;;;;;5.25;3.72;;;4.40;99.90;;;;;;5015944;28;20033;-68
2022/11/23 12:14:03;;;;;;;5.72;4.18;;;4.40;99.90;;;;;;5016145;28;20029;-68
2022/11/23 12:16:41;;;;;;;4.68;3.65;;;4.40;99.90;;;;;;5015787;28;20112;-68
2022/11/23 12:19:10;;;;;;;4.22;3.70;;;4.40;99.90;;;;;;5015798;28;20117;-68
2022/11/23 12:22:09;;;;;;;5.43;4.00;;;4.40;99.90;;;;;;5033403;28;20029;-68
2022/11/23 12:24:53;;;;;;;5.40;4.30;;;4.40;99.90;;;;;;5015550;28;20041;-68
2022/11/23 12:27:33;;;;;;;4.72;3.83;;;4.50;99.90;;;;;;5015822;28;20355;-68
2022/11/23 12:30:36;;;;;;;5.03;3.70;;;4.50;99.90;;;;;;5033541;28;20025;-68
2022/11/23 12:33:08;;;;;;;4.60;3.83;;;4.50;99.90;;;;;;4995137;28;20038;-68
2022/11/23 12:35:42;;;;;;;5.57;3.85;;;4.50;99.90;;;;;;5033626;28;20029;-68
2022/11/23 12:38:08;;;;;;;5.45;3.70;;;4.60;99.90;;;;;;5017591;28;20026;-68
2022/11/23 12:40:52;;;;;;;3.92;3.20;;;4.60;99.90;;;;;;5039072;28;20033;-68
2022/11/23 12:43:23;;;;;;;3.90;3.15;;;4.60;99.90;;;;;;5039462;28;20026;-69
2022/11/23 12:46:34;;;;;;;5.50;3.63;;;4.70;99.90;;;;;;5021428;28;20424;-67
2022/11/23 12:49:05;;;;;;;3.80;2.95;;;4.70;99.90;;;;;;5035348;28;20124;-68
2022/11/23 12:51:53;;;;;;;3.90;3.50;;;4.70;99.90;;;;;;5018938;28;20076;-67
2022/11/23 12:55:03;;;;;;;4.27;3.13;;;4.70;99.90;;;;;;5036275;28;20386;-67
2022/11/23 12:57:37;;;;;;;3.85;3.35;;;4.70;99.90;;;;;;5018424;28;20147;-67
2022/11/23 13:00:12;;;;;;;4.00;3.33;;;4.70;99.90;;;;;;5036431;28;20029;-67